Time;durP1;ratioP1;P1;durP2;ratioP2;P2;SDS_P1;SDS_P2;PMS_P1;PMS_P2;Temp;Humidity;BMP_temperature;BMP_pressure;BME280_temperature;BME280_humidity;BME280_pressure;Samples;Min_cycle;Max_cycle;Signal;HPM_P1;HPM_P2
2022/11/06 00:01:21;;;;;;;28.35;15.75;;;;;;;8.09;66.55;100693.53;4988953;28;96882;-83
2022/11/06 00:03:46;;;;;;;30.88;15.40;;;;;;;7.89;66.48;100680.81;4971924;28;98568;-81
2022/11/06 00:08:59;;;;;;;29.05;15.15;;;;;;;7.90;66.30;100687.75;4987964;28;97220;-81
2022/11/06 00:11:25;;;;;;;30.30;14.52;;;;;;;7.90;66.28;100683.38;4954683;28;97449;-82
2022/11/06 00:13:53;;;;;;;26.08;14.93;;;;;;;7.87;66.27;100682.56;4997559;28;97935;-82
2022/11/06 00:16:19;;;;;;;25.58;14.38;;;;;;;7.87;66.48;100691.28;4970280;28;98141;-81
2022/11/06 00:18:45;;;;;;;28.42;15.55;;;;;;;7.93;66.68;100692.94;4956850;28;97111;-81
2022/11/06 00:21:11;;;;;;;29.52;14.38;;;;;;;7.96;66.95;100705.09;4968170;28;97145;-81
2022/11/06 00:23:37;;;;;;;27.83;15.15;;;;;;;7.78;67.01;100680.97;4940667;28;101706;-81
2022/11/06 00:26:15;;;;;;;23.13;15.10;;;;;;;7.87;67.10;100704.34;4953123;28;99830;-81
2022/11/06 00:28:41;;;;;;;27.77;15.18;;;;;;;7.78;67.11;100691.44;4939357;28;97130;-81
2022/11/06 00:31:08;;;;;;;30.92;15.73;;;;;;;7.79;66.86;100706.22;4968176;28;96856;-81
2022/11/06 00:33:34;;;;;;;30.63;14.40;;;;;;;7.74;67.07;100695.00;4948943;28;97960;-82
2022/11/06 00:36:05;;;;;;;29.33;15.07;;;;;;;7.75;66.72;100704.56;4938135;28;101020;-81
2022/11/06 00:38:30;;;;;;;24.25;15.68;;;;;;;7.67;66.67;100699.44;4945352;28;97538;-81
2022/11/06 00:40:56;;;;;;;28.73;14.57;;;;;;;7.66;66.91;100702.94;4955579;28;97156;-84
2022/11/06 00:43:22;;;;;;;25.90;15.32;;;;;;;7.65;67.10;100705.56;4968717;28;101934;-82
2022/11/06 00:45:47;;;;;;;30.67;14.70;;;;;;;7.58;67.07;100712.66;4981458;28;97987;-82
2022/11/06 00:48:13;;;;;;;27.73;15.10;;;;;;;7.57;67.46;100716.16;4962682;28;97090;-82
2022/11/06 00:50:38;;;;;;;31.05;15.13;;;;;;;7.59;66.65;100706.56;4970796;28;97988;-82
2022/11/06 00:53:04;;;;;;;23.17;14.77;;;;;;;7.56;67.05;100705.72;4994000;28;97591;-81
2022/11/06 00:55:29;;;;;;;25.08;15.75;;;;;;;7.57;66.92;100713.56;4950734;28;100899;-82
2022/11/06 00:57:56;;;;;;;28.05;15.23;;;;;;;7.46;66.93;100699.78;4966887;28;97093;-82
2022/11/06 01:00:22;;;;;;;35.63;15.63;;;;;;;7.52;66.73;100706.66;4950773;28;97256;-83
2022/11/06 01:02:48;;;;;;;24.73;14.70;;;;;;;7.50;67.02;100704.06;4953928;28;101576;-82
2022/11/06 01:05:13;;;;;;;26.52;14.40;;;;;;;7.49;66.61;100700.59;4956687;28;101576;-81
2022/11/06 01:07:40;;;;;;;28.02;15.95;;;;;;;7.46;66.62;100698.03;4951108;28;96984;-82
2022/11/06 01:10:06;;;;;;;30.25;15.07;;;;;;;7.48;66.62;100711.09;4970829;28;96914;-81
2022/11/06 01:12:33;;;;;;;24.75;15.10;;;;;;;7.50;66.43;100711.91;4955122;28;98061;-81
2022/11/06 01:14:58;;;;;;;30.30;14.77;;;;;;;7.40;66.62;100705.97;4932122;28;100979;-82
2022/11/06 01:17:24;;;;;;;26.27;13.73;;;;;;;7.41;66.87;100719.88;4976576;28;96654;-82
2022/11/06 01:19:50;;;;;;;35.13;16.58;;;;;;;7.37;66.82;100707.75;4950778;28;97127;-82
2022/11/06 01:22:15;;;;;;;24.23;13.98;;;;;;;7.38;66.18;100718.19;4952386;28;101851;-82
2022/11/06 01:24:41;;;;;;;26.30;14.60;;;;;;;7.37;66.43;100713.84;4963355;28;101367;-83
2022/11/06 01:27:06;;;;;;;22.90;14.27;;;;;;;7.35;66.24;100718.22;4965744;28;98064;-81
2022/11/06 01:29:32;;;;;;;25.48;14.10;;;;;;;7.23;66.55;100707.97;4953688;28;97139;-81
2022/11/06 01:31:58;;;;;;;26.05;14.40;;;;;;;7.21;66.72;100696.66;4953434;28;101061;-82
2022/11/06 01:34:23;;;;;;;21.52;14.20;;;;;;;7.22;66.92;100698.41;4953374;28;100993;-82
2022/11/06 01:36:49;;;;;;;26.88;15.20;;;;;;;7.28;66.52;100705.28;4952789;28;97048;-82
2022/11/06 01:39:15;;;;;;;22.10;14.10;;;;;;;7.23;66.73;100700.13;4968343;28;96779;-82
2022/11/06 01:41:50;;;;;;;23.92;13.95;;;;;;;7.25;66.49;100711.41;4969900;28;101111;-82
2022/11/06 01:44:34;;;;;;;26.10;13.20;;;;;;;7.24;66.75;100714.91;4954638;28;101446;-81
2022/11/06 01:47:02;;;;;;;22.00;13.55;;;;;;;7.18;66.87;100714.97;4966533;28;97359;-81
2022/11/06 01:49:32;;;;;;;28.10;14.65;;;;;;;7.15;66.72;100705.44;4969076;28;97393;-82
2022/11/06 01:52:00;;;;;;;26.25;14.02;;;;;;;7.07;66.77;100702.09;4965814;28;97882;-82
2022/11/06 01:54:27;;;;;;;26.83;13.57;;;;;;;7.10;66.95;100709.88;4952853;28;101472;-82
2022/11/06 01:56:54;;;;;;;22.65;13.52;;;;;;;7.15;66.43;100715.03;4969929;28;97296;-82
2022/11/06 01:59:22;;;;;;;26.63;13.95;;;;;;;7.13;66.53;100714.22;4969159;28;97180;-82
2022/11/06 02:01:48;;;;;;;28.95;14.82;;;;;;;7.06;66.40;100704.72;4959012;28;98013;-81
2022/11/06 02:04:25;;;;;;;25.70;15.07;;;;;;;6.98;66.36;100702.19;4937835;28;101644;-81
2022/11/06 02:06:52;;;;;;;25.42;14.63;;;;;;;6.96;66.58;100704.84;4958932;28;96879;-82
2022/11/06 02:09:18;;;;;;;26.23;14.20;;;;;;;6.97;67.16;100709.16;4954069;28;96833;-82
2022/11/06 02:11:49;;;;;;;24.20;13.20;;;;;;;6.96;66.90;100709.19;4968981;28;97984;-82
2022/11/06 02:14:36;;;;;;;27.42;14.75;;;;;;;6.93;66.59;100702.28;4970766;28;101552;-81
2022/11/06 02:17:08;;;;;;;28.67;14.57;;;;;;;6.95;66.94;100715.28;4951040;28;97321;-81
2022/11/06 02:19:52;;;;;;;24.58;14.50;;;;;;;6.98;66.76;100720.47;4936796;28;97333;-82
2022/11/06 02:22:48;;;;;;;25.35;14.93;;;;;;;6.98;66.74;100715.25;4969436;28;101730;-82
2022/11/06 02:25:46;;;;;;;26.88;14.20;;;;;;;6.94;66.22;100719.66;4970025;28;101306;-82
2022/11/06 02:28:32;;;;;;;28.88;14.65;;;;;;;6.88;66.56;100718.88;4952336;28;97387;-81
2022/11/06 02:31:00;;;;;;;26.95;13.60;;;;;;;6.85;66.32;100717.16;4986046;28;96919;-82
2022/11/06 02:33:29;;;;;;;29.83;14.02;;;;;;;6.84;66.47;100715.44;4952407;28;101586;-83
2022/11/06 02:36:02;;;;;;;24.63;13.10;;;;;;;6.72;66.73;100692.97;4971909;28;101210;-82
2022/11/06 02:38:33;;;;;;;25.83;14.68;;;;;;;6.77;66.59;100701.59;4951684;28;96814;-83
2022/11/06 02:41:02;;;;;;;23.52;13.35;;;;;;;6.82;66.57;100708.50;4956972;28;97748;-82
2022/11/06 02:43:34;;;;;;;29.05;14.10;;;;;;;6.74;66.39;100701.63;4976294;28;98030;-82
2022/11/06 02:46:06;;;;;;;25.25;14.35;;;;;;;6.76;66.44;100704.22;4968827;28;98032;-82
2022/11/06 02:48:37;;;;;;;24.92;13.40;;;;;;;6.76;66.18;100718.13;4971520;28;97278;-82
2022/11/06 02:51:04;;;;;;;22.20;13.40;;;;;;;6.78;66.39;100724.22;4970195;28;96772;-81
2022/11/06 02:53:31;;;;;;;27.10;14.57;;;;;;;6.77;66.65;100724.22;4949206;28;101663;-83
2022/11/06 02:56:02;;;;;;;26.27;14.93;;;;;;;6.76;66.23;100723.34;4940662;28;101331;-81
2022/11/06 02:58:30;;;;;;;24.85;14.60;;;;;;;6.72;66.12;100707.75;4969806;28;97338;-82
2022/11/06 03:01:04;;;;;;;30.60;15.13;;;;;;;6.70;66.65;100714.75;4973296;28;96833;-82
2022/11/06 03:03:32;;;;;;;22.63;13.80;;;;;;;6.58;66.79;100700.97;4954946;28;101355;-83
2022/11/06 03:06:14;;;;;;;24.07;14.13;;;;;;;6.66;66.84;100719.13;4953115;28;101353;-82
2022/11/06 03:09:04;;;;;;;21.77;13.73;;;;;;;6.61;66.30;100707.88;4986064;28;97489;-82
2022/11/06 03:11:40;;;;;;;26.87;13.27;;;;;;;6.51;66.33;100694.06;4962516;28;97512;-83
2022/11/06 03:14:18;;;;;;;24.10;13.83;;;;;;;6.56;66.37;100705.31;4964703;28;101561;-81
2022/11/06 03:17:09;;;;;;;24.80;16.17;;;;;;;6.57;66.89;100706.19;4955954;28;101257;-81
2022/11/06 03:19:53;;;;;;;23.27;13.55;;;;;;;6.57;65.97;100701.84;4955565;28;97112;-82
2022/11/06 03:22:39;;;;;;;20.73;12.30;;;;;;;6.57;66.09;100712.28;4965152;28;97844;-81
2022/11/06 03:25:16;;;;;;;28.60;14.87;;;;;;;6.53;66.57;100704.50;4942699;28;97969;-82
2022/11/06 03:27:56;;;;;;;23.45;13.93;;;;;;;6.47;66.69;100705.44;4954699;28;101698;-82
2022/11/06 03:30:22;;;;;;;28.20;14.57;;;;;;;6.49;67.04;100700.22;4983248;28;97406;-83
2022/11/06 03:32:54;;;;;;;29.93;13.80;;;;;;;6.49;67.07;100706.28;4988092;28;97397;-81
2022/11/06 03:35:23;;;;;;;25.57;15.77;;;;;;;6.46;67.29;100710.69;4955491;28;101236;-82
2022/11/06 03:37:56;;;;;;;27.87;15.60;;;;;;;6.48;66.97;100712.34;4954679;28;101076;-81
2022/11/06 03:40:23;;;;;;;23.80;15.13;;;;;;;6.51;66.66;100712.31;4969243;28;97166;-82
2022/11/06 03:42:51;;;;;;;31.07;16.10;;;;;;;6.50;66.31;100705.41;4954040;28;97309;-82
2022/11/06 03:45:20;;;;;;;29.33;16.73;;;;;;;6.48;66.48;100708.91;4956400;28;101945;-81
2022/11/06 03:47:54;;;;;;;29.10;17.47;;;;;;;6.47;66.61;100699.34;4967870;28;97497;-82
2022/11/06 03:50:45;;;;;;;31.00;19.83;;;;;;;6.41;66.11;100710.72;4940451;28;96846;-82
2022/11/06 03:53:16;;;;;;;37.13;20.83;;;;;;;6.38;66.82;100708.16;4948242;28;97371;-81
2022/11/06 03:55:46;;;;;;;32.93;20.57;;;;;;;6.34;66.93;100711.66;4954420;28;101413;-82
2022/11/06 03:58:23;;;;;;;31.57;19.57;;;;;;;6.35;67.03;100714.25;4967007;28;99614;-81
2022/11/06 04:00:50;;;;;;;31.47;19.03;;;;;;;6.32;67.03;100706.47;4964918;28;97189;-81
2022/11/06 04:03:28;;;;;;;34.23;18.80;;;;;;;6.35;66.27;100714.25;4961354;28;97322;-82
2022/11/06 04:05:59;;;;;;;31.80;17.87;;;;;;;6.31;66.78;100715.19;4989535;28;98317;-83
2022/11/06 04:14:03;;;;;;;27.83;13.93;;;;;;;6.09;66.89;100692.78;4957055;28;97036;-82
2022/11/06 04:16:32;;;;;;;24.03;13.60;;;;;;;6.28;66.75;100704.78;4971365;28;101888;-83
2022/11/06 04:18:58;;;;;;;23.23;13.40;;;;;;;6.25;66.43;100690.88;4971725;28;101511;-83
2022/11/06 04:21:49;;;;;;;23.00;12.83;;;;;;;6.24;67.30;100703.06;4954520;28;97523;-82
2022/11/06 04:27:27;;;;;;;21.50;12.03;;;;;;;6.20;67.17;100713.56;4975163;28;97489;-82
2022/11/06 04:30:08;;;;;;;22.30;12.83;;;;;;;6.21;67.16;100710.06;4970466;28;101505;-82
2022/11/06 04:32:58;;;;;;;21.95;12.52;;;;;;;6.19;66.83;100715.28;4954257;28;97328;-82
2022/11/06 04:35:29;;;;;;;24.03;13.33;;;;;;;6.12;67.40;100714.47;4971506;28;97068;-82
2022/11/06 04:38:02;;;;;;;20.77;13.30;;;;;;;6.14;67.00;100714.47;4966113;28;102060;-82
2022/11/06 04:40:46;;;;;;;24.10;13.27;;;;;;;6.06;66.85;100705.84;4970425;28;97569;-83
2022/11/06 04:43:22;;;;;;;23.90;12.90;;;;;;;6.09;66.96;100708.44;4970316;28;96857;-82
2022/11/06 04:45:50;;;;;;;21.37;12.60;;;;;;;6.09;67.39;100698.00;4954772;28;97551;-82
2022/11/06 04:48:16;;;;;;;24.27;12.73;;;;;;;6.08;67.18;100707.56;4954186;28;101540;-82
2022/11/06 04:50:46;;;;;;;27.23;13.00;;;;;;;6.07;67.06;100704.97;4953904;28;97813;-82
2022/11/06 04:53:13;;;;;;;23.00;12.20;;;;;;;5.93;66.99;100680.75;4954204;28;97012;-82
2022/11/06 04:55:51;;;;;;;25.93;12.80;;;;;;;6.02;67.27;100702.44;4953923;28;96856;-83
2022/11/06 04:58:17;;;;;;;22.17;12.80;;;;;;;6.01;67.16;100698.06;4970654;28;97568;-82
2022/11/06 05:00:47;;;;;;;22.60;12.87;;;;;;;5.96;66.94;100699.84;4937340;28;101960;-82
2022/11/06 05:03:14;;;;;;;25.20;12.80;;;;;;;5.89;66.88;100691.19;4970446;28;96772;-82
2022/11/06 05:05:40;;;;;;;26.93;14.23;;;;;;;5.83;67.22;100693.00;4970548;28;96887;-82
2022/11/06 05:08:06;;;;;;;25.23;14.07;;;;;;;5.96;67.61;100712.88;4954742;28;97798;-82
2022/11/06 05:10:31;;;;;;;21.40;12.60;;;;;;;5.96;67.52;100705.06;4969994;28;98035;-83
2022/11/06 05:12:57;;;;;;;27.17;13.65;;;;;;;5.97;67.33;100705.94;4954098;28;97602;-82
2022/11/06 05:15:22;;;;;;;21.07;12.63;;;;;;;5.95;67.46;100692.91;4954900;28;97266;-82
2022/11/06 05:17:48;;;;;;;22.33;12.67;;;;;;;6.01;66.70;100710.25;4979257;28;97838;-83
2022/11/06 05:20:13;;;;;;;24.30;14.70;;;;;;;5.96;67.06;100705.06;4954147;28;102067;-82
2022/11/06 05:23:01;;;;;;;19.97;11.80;;;;;;;5.97;67.22;100708.56;4952917;28;97090;-82
2022/11/06 05:25:29;;;;;;;21.23;12.33;;;;;;;6.00;66.93;100698.09;4967918;28;97304;-82
2022/11/06 05:27:55;;;;;;;26.57;13.70;;;;;;;5.98;67.07;100694.63;4936144;28;98551;-82
2022/11/06 05:30:21;;;;;;;25.97;12.83;;;;;;;5.93;66.94;100698.97;4954492;28;98029;-82
2022/11/06 05:32:47;;;;;;;22.53;12.43;;;;;;;5.90;66.83;100705.09;4953233;28;97302;-82
2022/11/06 05:35:13;;;;;;;22.10;12.93;;;;;;;5.94;67.10;100701.63;4953809;28;96827;-82
2022/11/06 05:37:39;;;;;;;22.70;12.60;;;;;;;5.92;67.25;100697.28;4949376;28;101177;-83
2022/11/06 05:40:07;;;;;;;21.53;12.83;;;;;;;5.79;66.94;100683.47;4952264;28;101401;-82
2022/11/06 05:42:33;;;;;;;21.93;13.37;;;;;;;5.89;66.79;100709.44;4952741;28;97075;-83
2022/11/06 05:44:59;;;;;;;27.47;13.50;;;;;;;5.88;67.17;100704.25;4987508;28;96861;-81
2022/11/06 05:47:24;;;;;;;23.53;12.20;;;;;;;5.82;67.03;100709.53;4954008;28;101247;-82
2022/11/06 05:49:50;;;;;;;25.97;14.17;;;;;;;5.88;66.73;100705.13;4971029;28;101498;-82
2022/11/06 05:52:15;;;;;;;21.37;12.80;;;;;;;5.79;67.09;100697.38;4965597;28;96956;-82
2022/11/06 05:54:41;;;;;;;23.17;13.37;;;;;;;5.73;67.24;100696.53;4955951;28;96935;-82
2022/11/06 05:57:06;;;;;;;19.87;13.13;;;;;;;5.82;67.34;100699.09;4953522;28;101410;-82
2022/11/06 05:59:32;;;;;;;22.83;13.10;;;;;;;5.88;67.01;100709.47;4955869;28;101250;-83
2022/11/06 06:01:58;;;;;;;24.37;13.67;;;;;;;5.86;67.52;100712.06;4969249;28;98162;-82
2022/11/06 06:04:24;;;;;;;18.47;12.87;;;;;;;5.83;67.60;100706.88;4955680;28;97874;-83
2022/11/06 06:06:49;;;;;;;20.97;13.03;;;;;;;5.80;67.50;100706.91;4949480;28;100873;-83
2022/11/06 06:09:15;;;;;;;23.03;12.33;;;;;;;5.79;67.25;100694.78;4969301;28;101263;-82
2022/11/06 06:11:40;;;;;;;26.47;13.33;;;;;;;5.78;66.88;100690.41;4974976;28;97349;-82
2022/11/06 06:14:06;;;;;;;25.37;12.70;;;;;;;5.85;67.22;100699.06;4984388;28;97067;-83
2022/11/06 06:16:32;;;;;;;26.00;11.93;;;;;;;5.72;67.53;100697.44;4973515;28;101006;-83
2022/11/06 06:18:58;;;;;;;24.10;12.50;;;;;;;5.87;67.28;100697.28;4962022;28;98105;-83
2022/11/06 06:21:23;;;;;;;24.97;12.97;;;;;;;5.81;67.78;100686.94;4945969;28;97404;-83
2022/11/06 06:23:49;;;;;;;24.10;12.97;;;;;;;5.84;67.47;100700.78;4972861;28;97176;-82
2022/11/06 06:26:14;;;;;;;24.20;12.73;;;;;;;5.85;66.86;100684.28;4956600;28;101735;-83
2022/11/06 06:28:40;;;;;;;27.07;12.43;;;;;;;5.87;67.40;100707.72;4980911;28;101208;-82
2022/11/06 06:31:06;;;;;;;22.10;13.23;;;;;;;5.89;67.17;100709.44;4941048;28;97452;-82
2022/11/06 06:33:32;;;;;;;25.53;13.27;;;;;;;5.83;67.98;100714.69;4971705;28;97217;-83
2022/11/06 06:36:01;;;;;;;21.53;12.60;;;;;;;5.83;67.69;100712.09;4957194;28;101892;-82
2022/11/06 06:38:26;;;;;;;29.73;12.00;;;;;;;6.01;67.49;100723.28;4972256;28;100932;-82
2022/11/06 06:40:53;;;;;;;21.17;12.53;;;;;;;5.82;67.65;100709.53;4969266;28;97033;-82
2022/11/06 06:43:18;;;;;;;23.50;11.63;;;;;;;5.89;67.99;100721.59;4954589;28;96905;-82
2022/11/06 06:45:44;;;;;;;19.30;11.63;;;;;;;5.95;67.72;100724.19;4978983;28;100728;-82
2022/11/06 06:48:09;;;;;;;19.70;11.23;;;;;;;5.95;67.66;100715.50;4940349;28;101200;-83
2022/11/06 06:50:35;;;;;;;19.40;11.30;;;;;;;6.08;67.42;100727.56;4971981;28;96911;-82
2022/11/06 06:53:01;;;;;;;21.20;12.40;;;;;;;6.01;67.96;100729.34;4971833;28;96920;-84
2022/11/06 06:55:26;;;;;;;29.67;13.03;;;;;;;5.96;68.12;100732.88;4956311;28;98199;-83
2022/11/06 06:57:57;;;;;;;22.87;12.27;;;;;;;6.10;68.40;100728.41;4970542;28;97326;-82
2022/11/06 07:00:22;;;;;;;27.13;13.60;;;;;;;6.24;67.84;100734.34;4958126;28;97126;-82
2022/11/06 07:02:48;;;;;;;24.07;13.57;;;;;;;6.31;67.36;100729.94;4964143;28;97348;-83
2022/11/06 07:05:13;;;;;;;25.13;11.87;;;;;;;6.27;67.13;100703.03;4980969;28;101523;-82
2022/11/06 07:07:39;;;;;;;27.17;12.60;;;;;;;6.58;66.97;100729.66;4955074;28;101206;-83
2022/11/06 07:10:05;;;;;;;19.97;11.80;;;;;;;6.75;66.43;100731.22;4986033;28;97506;-84
2022/11/06 07:12:30;;;;;;;24.47;13.30;;;;;;;7.01;66.43;100729.16;4953291;28;97390;-83
2022/11/06 07:14:56;;;;;;;21.07;10.50;;;;;;;7.08;66.67;100729.91;4971813;28;99888;-82
2022/11/06 07:17:21;;;;;;;23.03;11.57;;;;;;;7.06;66.01;100730.81;4983242;28;101384;-83
2022/11/06 07:19:47;;;;;;;20.85;11.65;;;;;;;7.17;66.04;100742.00;4970885;28;97181;-83
2022/11/06 07:22:12;;;;;;;21.07;11.43;;;;;;;7.01;65.68;100695.22;4978008;28;97400;-82
2022/11/06 07:24:38;;;;;;;21.17;11.82;;;;;;;7.20;65.78;100729.75;4970951;28;101402;-83
2022/11/06 07:27:04;;;;;;;20.38;11.70;;;;;;;7.21;66.12;100728.00;4952741;28;101368;-83
2022/11/06 07:29:30;;;;;;;21.45;11.77;;;;;;;7.15;65.85;100708.06;4979845;28;97019;-83
2022/11/06 07:31:55;;;;;;;21.83;11.25;;;;;;;7.23;66.32;100723.63;4964670;28;97690;-83
2022/11/06 07:34:21;;;;;;;20.55;11.25;;;;;;;7.37;66.08;100728.66;4955911;28;99887;-83
2022/11/06 07:36:47;;;;;;;23.15;11.52;;;;;;;7.27;65.73;100696.56;4972164;28;98413;-82
2022/11/06 07:39:12;;;;;;;27.52;12.00;;;;;;;7.43;65.64;100700.69;4984803;28;97238;-82
2022/11/06 07:41:38;;;;;;;20.98;11.52;;;;;;;7.59;66.15;100717.00;4978970;28;97394;-82
2022/11/06 07:44:04;;;;;;;19.83;11.77;;;;;;;7.74;65.75;100704.56;4950343;28;101722;-82
2022/11/06 07:46:29;;;;;;;18.25;10.98;;;;;;;7.98;65.08;100709.41;4967036;28;101493;-83
2022/11/06 07:48:55;;;;;;;23.17;13.23;;;;;;;8.20;64.91;100719.47;4968979;28;97153;-82
2022/11/06 07:51:21;;;;;;;21.15;10.48;;;;;;;8.47;64.25;100715.53;4958363;28;98260;-82
2022/11/06 07:53:46;;;;;;;16.95;9.35;;;;;;;8.53;63.37;100684.03;4957344;28;97614;-82
2022/11/06 07:56:12;;;;;;;17.55;9.95;;;;;;;8.82;63.50;100700.00;4955659;28;101626;-82
2022/11/06 07:58:37;;;;;;;15.93;9.20;;;;;;;8.84;62.92;100699.94;4966992;28;96917;-81
2022/11/06 08:01:03;;;;;;;17.52;9.18;;;;;;;9.19;62.74;100714.91;4984656;28;96916;-82
2022/11/06 08:03:29;;;;;;;19.08;8.63;;;;;;;9.54;61.95;100710.63;4987172;28;97727;-82
2022/11/06 08:05:55;;;;;;;17.88;8.63;;;;;;;9.75;61.78;100711.88;4968190;28;101111;-83
2022/11/06 08:08:21;;;;;;;14.98;7.95;;;;;;;9.86;61.74;100709.84;4955055;28;96819;-82
2022/11/06 08:10:46;;;;;;;15.95;9.25;;;;;;;10.10;61.05;100705.75;4970619;28;96791;-82
2022/11/06 08:13:15;;;;;;;19.05;8.48;;;;;;;10.48;60.39;100716.16;4972103;28;97515;-82
2022/11/06 08:15:41;;;;;;;14.90;7.30;;;;;;;10.59;59.62;100706.22;4954986;28;101576;-81
2022/11/06 08:18:07;;;;;;;16.85;8.50;;;;;;;10.84;58.68;100701.13;4967842;28;97033;-81
2022/11/06 08:20:34;;;;;;;14.38;7.97;;;;;;;11.07;58.79;100700.44;4952599;28;97480;-82
2022/11/06 08:23:01;;;;;;;18.85;8.00;;;;;;;11.44;58.42;100708.06;4968836;28;101341;-81
2022/11/06 08:25:27;;;;;;;12.18;7.18;;;;;;;11.54;57.73;100708.63;4966208;28;98053;-81
2022/11/06 08:28:00;;;;;;;13.48;6.78;;;;;;;11.60;57.96;100702.31;4947759;28;97190;-81
2022/11/06 08:30:27;;;;;;;11.20;7.05;;;;;;;11.84;57.63;100714.69;4956467;28;97341;-82
2022/11/06 08:32:53;;;;;;;13.45;7.80;;;;;;;12.04;56.72;100713.16;4950494;28;100582;-82
2022/11/06 08:35:19;;;;;;;16.38;6.18;;;;;;;12.42;56.15;100717.97;4963301;28;99239;-82
2022/11/06 08:37:45;;;;;;;12.13;6.15;;;;;;;12.48;56.42;100695.84;4949062;28;97352;-82
2022/11/06 08:40:11;;;;;;;13.63;6.35;;;;;;;12.60;56.09;100703.28;4963753;28;98276;-82
2022/11/06 08:42:37;;;;;;;16.17;7.72;;;;;;;12.86;55.42;100697.06;4949963;28;100996;-82
2022/11/06 08:45:03;;;;;;;12.88;6.55;;;;;;;13.20;54.47;100695.75;4953346;28;101334;-85
2022/11/06 08:47:29;;;;;;;12.07;6.07;;;;;;;13.29;54.07;100681.38;4951164;28;97654;-84
2022/11/06 08:49:54;;;;;;;13.57;6.57;;;;;;;13.57;54.57;100694.34;4992916;28;97591;-84
2022/11/06 08:52:20;;;;;;;10.70;6.18;;;;;;;13.59;54.44;100684.59;4975649;28;101641;-83
2022/11/06 08:54:46;;;;;;;10.93;6.55;;;;;;;13.85;53.86;100694.06;4968760;28;97781;-83
2022/11/06 08:57:11;;;;;;;12.35;6.22;;;;;;;14.18;52.56;100691.78;4954656;28;97289;-83
2022/11/06 08:59:37;;;;;;;13.55;6.88;;;;;;;14.34;52.21;100701.66;4954120;28;97739;-82
2022/11/06 09:02:02;;;;;;;12.32;7.30;;;;;;;14.15;51.64;100676.06;4965563;28;98488;-81
2022/11/06 09:04:28;;;;;;;12.35;7.10;;;;;;;14.27;51.76;100669.41;4952938;28;101702;-83
2022/11/06 09:06:56;;;;;;;14.60;7.25;;;;;;;14.49;52.04;100679.88;4949834;28;97441;-83
2022/11/06 09:09:22;;;;;;;13.73;7.10;;;;;;;14.44;51.39;100681.88;4938352;28;96939;-81
2022/11/06 09:11:47;;;;;;;15.70;7.68;;;;;;;14.34;52.43;100677.91;4953775;28;100984;-82
2022/11/06 09:14:13;;;;;;;14.45;6.95;;;;;;;14.56;52.02;100694.56;4935389;28;101837;-81
2022/11/06 09:16:38;;;;;;;15.30;7.18;;;;;;;15.53;49.52;100692.69;4951033;28;97613;-84
2022/11/06 09:19:04;;;;;;;16.70;6.80;;;;;;;15.28;49.89;100700.97;4949281;28;97725;-79
2022/11/06 09:21:29;;;;;;;9.93;6.03;;;;;;;15.50;49.55;100692.84;4962757;28;101674;-81
2022/11/06 09:23:55;;;;;;;12.07;6.90;;;;;;;15.72;48.18;100660.94;4971246;28;101492;-84
2022/11/06 09:26:21;;;;;;;15.25;6.43;;;;;;;15.52;49.67;100683.91;4969794;28;97755;-85
2022/11/06 09:28:46;;;;;;;10.15;5.70;;;;;;;15.94;48.57;100687.16;4956911;28;97335;-84
2022/11/06 09:31:12;;;;;;;13.45;6.18;;;;;;;16.00;48.33;100694.81;4971305;28;100989;-88
2022/11/06 09:33:38;;;;;;;14.50;6.05;;;;;;;15.88;48.99;100696.25;4950424;28;101497;-82
2022/11/06 09:36:04;;;;;;;13.75;6.43;;;;;;;15.99;48.28;100693.09;4973769;28;97570;-88
2022/11/06 09:38:30;;;;;;;12.80;6.45;;;;;;;15.57;49.67;100686.31;4955359;28;97441;-84
2022/11/06 09:40:58;;;;;;;13.32;6.13;;;;;;;15.52;50.86;100672.47;4953759;28;101307;-87
2022/11/06 09:43:48;;;;;;;14.15;7.00;;;;;;;15.89;49.65;100689.19;4953168;28;100356;-85
2022/11/06 09:46:26;;;;;;;12.32;6.45;;;;;;;16.00;50.05;100690.38;4985320;28;97181;-89
2022/11/06 09:49:04;;;;;;;10.50;5.57;;;;;;;16.12;48.87;100698.63;4987233;28;96800;-84
2022/11/06 09:51:39;;;;;;;16.35;6.30;;;;;;;16.11;48.19;100673.91;4968903;28;102028;-84
2022/11/06 09:54:40;;;;;;;12.32;6.15;;;;;;;16.02;48.06;100677.03;4969801;28;97981;-84
2022/11/06 09:57:25;;;;;;;12.93;5.40;;;;;;;15.83;49.73;100687.72;4969437;28;97437;-85
2022/11/06 09:59:50;;;;;;;16.88;6.40;;;;;;;15.89;48.66;100674.16;4991669;28;97237;-85
2022/11/06 10:02:33;;;;;;;13.05;5.95;;;;;;;15.83;48.23;100687.72;4971854;28;101536;-87
2022/11/06 10:05:05;;;;;;;17.42;5.70;;;;;;;15.41;49.04;100665.03;4952332;28;101602;-82
2022/11/06 10:07:36;;;;;;;14.30;6.10;;;;;;;15.08;49.71;100686.88;4968487;28;97821;-81
2022/11/06 10:10:04;;;;;;;12.50;6.27;;;;;;;14.99;50.60;100683.81;4966526;28;98005;-80
2022/11/06 10:13:07;;;;;;;12.40;5.82;;;;;;;15.02;50.60;100681.03;4952322;28;101596;-82
2022/11/06 10:15:38;;;;;;;14.93;6.53;;;;;;;14.99;51.34;100678.53;4965438;28;101613;-88
2022/11/06 10:18:25;;;;;;;12.80;5.93;;;;;;;14.84;51.27;100680.97;4954446;28;96853;-87
2022/11/06 10:20:53;;;;;;;10.43;4.70;;;;;;;14.21;52.45;100653.81;4968774;28;97561;-85
2022/11/06 10:23:19;;;;;;;14.75;6.80;;;;;;;14.25;52.65;100676.50;4945476;28;101662;-83
2022/11/06 10:26:11;;;;;;;11.10;5.13;;;;;;;14.28;54.22;100671.09;4968068;28;98445;-83
2022/11/06 10:28:52;;;;;;;12.88;4.78;;;;;;;14.27;54.05;100666.75;4952442;28;97174;-87
2022/11/06 10:31:38;;;;;;;11.70;4.30;;;;;;;14.06;53.43;100625.47;4983710;28;97295;-88
2022/11/06 10:34:06;;;;;;;12.05;4.03;;;;;;;14.22;53.42;100664.34;4959111;28;99007;-87
2022/11/06 10:36:41;;;;;;;11.18;4.43;;;;;;;13.88;53.80;100638.53;4968896;28;100944;-85
2022/11/06 10:39:13;;;;;;;10.40;4.32;;;;;;;13.87;54.57;100654.41;4955251;28;96927;-86
2022/11/06 10:41:38;;;;;;;11.68;3.55;;;;;;;13.59;54.99;100639.75;4952259;28;96852;-85
2022/11/06 10:44:09;;;;;;;10.40;4.00;;;;;;;13.68;54.16;100626.19;4959591;28;102063;-93
2022/11/06 10:46:38;;;;;;;14.52;4.80;;;;;;;13.81;53.36;100630.00;4983666;28;100628;-86
2022/11/06 10:49:33;;;;;;;15.70;4.97;;;;;;;13.61;54.44;100627.34;4951387;28;97297;-86
2022/11/06 10:52:11;;;;;;;16.70;5.43;;;;;;;13.61;54.67;100635.25;4965184;28;98482;-86
2022/11/06 10:54:49;;;;;;;13.60;4.82;;;;;;;13.49;55.26;100633.13;4948517;28;101858;-85
2022/11/06 10:57:39;;;;;;;10.10;4.35;;;;;;;13.41;55.41;100620.28;4963097;28;99428;-86
2022/11/06 11:00:12;;;;;;;15.98;4.45;;;;;;;13.34;55.28;100606.47;4984789;28;96785;-86
2022/11/06 11:02:42;;;;;;;12.27;4.63;;;;;;;13.00;55.71;100575.34;4954792;28;97134;-85
2022/11/06 11:05:13;;;;;;;10.18;4.25;;;;;;;13.08;55.69;100594.31;4981239;28;101518;-86
2022/11/06 11:07:39;;;;;;;12.55;4.65;;;;;;;12.97;56.37;100585.97;4953527;28;97382;-84
2022/11/06 11:10:29;;;;;;;10.90;4.22;;;;;;;12.91;57.25;100586.22;4954015;28;98366;-85
2022/11/06 11:12:57;;;;;;;12.95;4.15;;;;;;;12.88;56.34;100581.91;4950101;28;97418;-84
2022/11/06 11:15:28;;;;;;;11.85;3.95;;;;;;;12.77;57.41;100584.13;4949109;28;101454;-86
2022/11/06 11:18:32;;;;;;;9.02;5.20;;;;;;;12.84;57.47;100574.22;4987691;28;97343;-86
2022/11/06 11:21:09;;;;;;;9.93;3.70;;;;;;;12.88;56.60;100568.75;4890855;28;97417;-84
2022/11/06 11:23:34;;;;;;;12.93;4.20;;;;;;;12.67;56.76;100546.75;4950662;28;97027;-84
2022/11/06 11:26:23;;;;;;;8.52;3.25;;;;;;;12.63;57.79;100568.00;4953663;28;101521;-76
2022/11/06 11:29:00;;;;;;;9.77;3.58;;;;;;;12.48;57.80;100543.13;4955472;28;101364;-80
2022/11/06 11:31:28;;;;;;;12.27;3.50;;;;;;;12.48;57.19;100535.22;4955578;28;97272;-80
2022/11/06 11:33:55;;;;;;;10.68;3.97;;;;;;;12.71;57.04;100547.47;4954681;28;97028;-80
2022/11/06 11:36:22;;;;;;;9.82;3.72;;;;;;;12.75;56.49;100553.50;4952568;28;101644;-80
2022/11/06 11:38:48;;;;;;;11.50;3.22;;;;;;;12.60;56.43;100542.66;4949055;28;98176;-80